Troy, Kansas
Current Conditions -  °F | °C
As of 9:53 AM on Thursday 30 Oct 2014 (Local Time) from KSTJ Reporting Station
Clear Clear  
Wind Chill: 53°   Ceiling: Unl
Heat Index: 53°   Visibility: 10mi
Dew Point: 42°   Wind: 0mph
Humidity: 66%   Direction: NA
Pressure: 30.03"   Gusts: NA
Location:  39.78°N, 95.09°W
Report Text: KSTJ 301453Z 00000KT 10SM CLR 12/06 A3003 RMK AO2 SLP171 T01170056 53009
Loading
Personal Weather Stations






























Interactive Weather Map
Tropical Storm Tracking
New forecast layout! Learn more

10-Day Weather Forecast

Advertisements
Track Severe Weather on mobile